Have a Safe July 4th! 

Flight Track Log - Related Links

Times and Time Zones

All times are in EDT time to prevent confusion due to time zone crossing. See the FDX542 flight status page for this flight to view local times or setup timezone preferences in your user account.

Time Position Orientation Groundspeed Altitude Reporting Facility
EDT Latitude Longitude Course Direction KTS MPH feet Rate Location/Type
Fri 06:42:51 PM 37.6664 -97.4392 288° West 155 178 2,800  Level Kansas City Center
Fri 06:44:43 PM 37.6989 -97.5664 278° West 234 269 7,100 2,667 Climbing Kansas City Center
Fri 06:45:42 PM 37.7089 -97.6614 282° West 257 296 10,400 2,450 Climbing Kansas City Center
Fri 06:46:43 PM 37.7269 -97.7672 307° West 286 329 12,000 1,686 Climbing Kansas City Center
Fri 06:47:43 PM 37.7886 -97.8722 309° West 317 365 13,800 2,000 Climbing Kansas City Center
Fri 06:48:43 PM 37.8464 -97.9617 310° West 359 413 16,000 2,773 Climbing Kansas City Center
Fri 06:49:42 PM 37.9222 -98.0783 310° West 390 449 19,300 2,581 Climbing Kansas City Center
Fri 06:51:42 PM 38.0617 -98.2933 309° West 390 449 23,700 2,133 Climbing Kansas City Center
Fri 06:52:42 PM 38.1372 -98.4108 309° West 410 472 25,700 2,100 Climbing Kansas City Center
Fri 06:53:42 PM 38.2125 -98.5311 316° Northwest 421 484 27,900 2,200 Climbing Kansas City Center
Fri 06:54:42 PM 38.2964 -98.6361 319° Northwest 421 484 30,100 2,331 Climbing Kansas City Center
Fri 06:55:43 PM 38.3828 -98.7336 319° Northwest 421 484 32,600 2,083 Climbing Kansas City Center
Fri 06:56:43 PM 38.4650 -98.8258 319° Northwest 408 470 34,300 1,200 Climbing Kansas City Center
Fri 06:57:43 PM 38.5511 -98.9211 319° Northwest 403 464 35,000 450 Climbing Kansas City Center
Fri 06:58:43 PM 38.6333 -99.0111 318° Northwest 398 458 35,200 950 Climbing Kansas City Center
Fri 06:59:43 PM 38.7111 -99.1011 318° Northwest 393 452 36,900 994 Climbing Kansas City Center
Fri 07:01:32 PM 38.8561 -99.2700 318° Northwest 355 409 38,000 391 Climbing Denver Center
Fri 07:02:32 PM 38.9306 -99.3556 317° Northwest 375 432 38,000  Level Denver Center
Fri 07:03:32 PM 39.0183 -99.4592 319° Northwest 382 440 38,000  Level Denver Center
Fri 07:04:32 PM 39.0989 -99.5500 319° Northwest 391 450 38,000  Level Denver Center
Fri 07:05:32 PM 39.1706 -99.6314 320° Northwest 391 450 38,000  Level Denver Center
Fri 07:06:32 PM 39.2644 -99.7347 309° West 391 450 38,000  Level Denver Center
Fri 07:07:32 PM 39.3264 -99.8333 309° West 391 450 38,000  Level Denver Center
Fri 07:08:32 PM 39.3953 -99.9425 312° West 396 456 38,000  Level Denver Center
Fri 07:09:32 PM 39.4747 -100.0561 318° Northwest 391 450 38,000  Level Denver Center
Fri 07:10:32 PM 39.5531 -100.1483 317° Northwest 386 444 38,000  Level Denver Center
Fri 07:11:32 PM 39.6222 -100.2311 318° Northwest 381 438 38,000  Level Denver Center
Fri 07:12:32 PM 39.7022 -100.3236 318° Northwest 381 438 38,000  Level Denver Center
Fri 07:13:32 PM 39.7914 -100.4267 317° Northwest 381 438 38,000  Level Denver Center
Fri 07:14:32 PM 39.8692 -100.5225 317° Northwest 381 438 38,000  Level Denver Center
Fri 07:15:32 PM 39.9383 -100.6058 318° Northwest 381 438 38,000  Level Denver Center
Fri 07:16:32 PM 40.0181 -100.6994 317° Northwest 376 433 38,000  Level Denver Center
Fri 07:17:32 PM 40.1003 -100.8011 318° Northwest 371 427 38,000  Level Denver Center
Fri 07:18:32 PM 40.1800 -100.8950 317° Northwest 371 427 38,000  Level Denver Center
Fri 07:19:32 PM 40.2489 -100.9792 318° Northwest 371 427 38,000  Level Denver Center
Fri 07:20:32 PM 40.3261 -101.0711 316° Northwest 371 427 38,000  Level Denver Center
Fri 07:21:32 PM 40.4103 -101.1761 317° Northwest 371 427 38,000  Level Denver Center
Fri 07:22:32 PM 40.4878 -101.2711 318° Northwest 371 427 38,000  Level Denver Center
Fri 07:23:32 PM 40.5647 -101.3636 318° Northwest 371 427 38,000  Level Denver Center
Fri 07:24:32 PM 40.6353 -101.4486 315° West 376 433 38,000  Level Denver Center
Fri 07:25:32 PM 40.7192 -101.5575 318° Northwest 376 433 38,000  Level Denver Center
Fri 07:26:32 PM 40.7983 -101.6531 317° Northwest 376 433 38,000  Level Denver Center
Fri 07:27:32 PM 40.8753 -101.7492 317° Northwest 376 433 38,000  Level Denver Center
Fri 07:28:32 PM 40.9456 -101.8350 317° Northwest 376 433 38,000  Level Denver Center
Fri 07:29:32 PM 41.0311 -101.9419 317° Northwest 376 433 38,000  Level Denver Center
Fri 07:30:32 PM 41.1081 -102.0386 316° Northwest 376 433 38,000  Level Denver Center
Fri 07:31:32 PM 41.1847 -102.1383 317° Northwest 376 433 38,000  Level Denver Center
Fri 07:32:32 PM 41.2525 -102.2222 316° Northwest 376 433 38,000  Level Denver Center
Fri 07:33:32 PM 41.3356 -102.3303 316° Northwest 376 433 38,000  Level Denver Center
Fri 07:34:32 PM 41.4100 -102.4253 317° Northwest 371 427 38,000  Level Denver Center
Fri 07:35:32 PM 41.4861 -102.5206 317° Northwest 371 427 38,000  Level Denver Center
Fri 07:36:32 PM 41.5536 -102.6053 316° Northwest 371 427 38,000  Level Denver Center
Fri 07:37:32 PM 41.6342 -102.7089 317° Northwest 371 427 38,000  Level Denver Center
Fri 07:38:32 PM 41.7103 -102.8047 317° Northwest 371 427 38,000  Level Denver Center
Fri 07:39:32 PM 41.7842 -102.8981 316° Northwest 371 427 38,000  Level Denver Center
Fri 07:40:32 PM 41.8492 -102.9836 317° Northwest 366 421 38,000  Level Denver Center
Fri 07:41:32 PM 41.9336 -103.0908 315° West 372 428 38,000  Level Denver Center
Fri 07:42:32 PM 42.0053 -103.1875 315° West 367 422 38,000  Level Denver Center
Fri 07:43:32 PM 42.0767 -103.2847 316° Northwest 367 422 38,000  Level Denver Center
Fri 07:44:32 PM 42.1439 -103.3711 317° Northwest 374 430 38,000  Level Denver Center
Fri 07:45:32 PM 42.2256 -103.4736 315° West 369 425 38,000  Level Denver Center
Fri 07:46:32 PM 42.2989 -103.5711 315° West 369 425 38,000  Level Denver Center
Fri 07:47:32 PM 42.3658 -103.6608 315° West 369 425 38,000 50 Level Denver Center
Fri 07:48:32 PM 42.4389 -103.7589 316° Northwest 369 425 38,100  Climbing Denver Center
Fri 07:49:32 PM 42.5228 -103.8681 315° West 369 425 38,000 -50 Descending Denver Center
Fri 07:50:32 PM 42.5936 -103.9639 315° West 369 425 38,000  Level Denver Center
Fri 07:51:32 PM 42.6603 -104.0544 316° Northwest 369 425 38,000  Level Denver Center
Fri 07:52:32 PM 42.7414 -104.1617 315° West 369 425 38,000  Level Denver Center
Fri 07:53:32 PM 42.8142 -104.2608 315° West 369 425 38,000  Level Denver Center
Fri 07:54:32 PM 42.8783 -104.3492 315° West 369 425 38,000  Level Denver Center
Fri 07:55:32 PM 42.9511 -104.4489 315° West 369 425 38,000  Level Denver Center
Fri 07:56:32 PM 43.0300 -104.5572 315° West 369 425 38,000  Level Denver Center
Fri 07:57:32 PM 43.1022 -104.6572 315° West 369 425 38,000  Level Denver Center
Fri 07:58:32 PM 43.1661 -104.7464 315° West 369 425 38,000  Level Denver Center
Fri 07:59:32 PM 43.2447 -104.8556 315° West 369 425 38,000  Level Denver Center
Fri 08:00:32 PM 43.3192 -104.9592 315° West 369 425 38,000  Level Denver Center
Fri 08:01:32 PM 43.3847 -105.0489 314° West 369 425 38,000  Level Denver Center
Fri 08:02:32 PM 43.4547 -105.1472 314° West 369 425 38,000  Level Denver Center
Fri 08:03:32 PM 43.5331 -105.2603 315° West 369 425 38,000  Level Denver Center
Fri 08:04:32 PM 43.6047 -105.3592 314° West 369 425 38,000  Level Denver Center
Fri 08:05:32 PM 43.6681 -105.4497 315° West 369 425 38,000  Level Denver Center
Fri 08:06:32 PM 43.7397 -105.5492 315° West 369 425 38,000  Level Denver Center
Fri 08:07:32 PM 43.8175 -105.6572 315° West 364 419 38,000  Level Denver Center
Fri 08:08:32 PM 43.8869 -105.7542 313° West 369 425 38,000  Level Denver Center
Fri 08:10:02 PM 43.9833 -105.8956 314° West 363 418 38,000  Level Salt Lake Center
Fri 08:11:04 PM 44.0608 -106.0083 314° West 362 417 38,000  Level Salt Lake Center
Fri 08:12:06 PM 44.1264 -106.1044 314° West 360 414 38,000 48 Level Salt Lake Center
Fri 08:13:08 PM 44.2050 -106.2186 314° West 359 413 38,100  Climbing Salt Lake Center
Fri 08:14:10 PM 44.2706 -106.3139 313° West 358 412 38,000 -48 Descending Salt Lake Center
Fri 08:15:12 PM 44.3356 -106.4097 313° West 356 410 38,000  Level Salt Lake Center
Fri 08:16:14 PM 44.4106 -106.5217 313° West 355 409 38,000  Level Salt Lake Center
Fri 08:17:16 PM 44.4756 -106.6181 314° West 356 410 38,000  Level Salt Lake Center
Fri 08:18:18 PM 44.5514 -106.7292 313° West 355 409 38,000  Level Salt Lake Center
Fri 08:19:20 PM 44.6167 -106.8267 314° West 357 411 38,000  Level Salt Lake Center
Fri 08:20:22 PM 44.6947 -106.9397 314° West 361 415 38,000  Level Salt Lake Center
Fri 08:21:24 PM 44.7617 -107.0378 313° West 363 418 38,000  Level Salt Lake Center
Fri 08:22:26 PM 44.8397 -107.1550 313° West 368 423 38,000 -629 Level Salt Lake Center
Fri 08:23:28 PM 44.9064 -107.2550 314° West 367 422 36,700 -968 Descending Salt Lake Center
Fri 08:24:30 PM 44.9853 -107.3711 314° West 368 423 36,000 -339 Descending Salt Lake Center
Fri 08:25:32 PM 45.0525 -107.4700 313° West 367 422 36,000  Level Salt Lake Center
Fri 08:26:34 PM 45.1306 -107.5875 313° West 368 423 36,000  Level Salt Lake Center
Fri 08:27:36 PM 45.1967 -107.6886 313° West 368 423 36,000  Level Salt Lake Center
Fri 08:28:38 PM 45.2733 -107.8053 314° West 365 420 36,000  Level Salt Lake Center
Fri 08:29:40 PM 45.3397 -107.9047 313° West 364 419 36,000  Level Salt Lake Center
Fri 08:30:42 PM 45.4164 -108.0208 313° West 362 417 36,000  Level Salt Lake Center
Fri 08:31:44 PM 45.4819 -108.1225 313° West 365 420 36,000  Level Salt Lake Center
Fri 08:32:46 PM 45.5583 -108.2394 313° West 363 418 36,000  Level Salt Lake Center
Fri 08:33:48 PM 45.6242 -108.3414 313° West 365 420 36,000  Level Salt Lake Center
Fri 08:34:51 PM 45.7011 -108.4597 313° West 364 419 36,000  Level Salt Lake Center
Fri 08:35:53 PM 45.7669 -108.5611 312° West 364 419 36,000  Level Salt Lake Center
Fri 08:36:55 PM 45.8431 -108.6817 313° West 366 421 36,000  Level Salt Lake Center
Fri 08:37:57 PM 45.9083 -108.7819 313° West 362 417 36,000 -290 Level Salt Lake Center
Fri 08:38:59 PM 45.9842 -108.9006 312° West 361 415 35,400 -1,016 Descending Salt Lake Center
Fri 08:40:01 PM 46.0492 -109.0031 313° West 362 417 33,900 -1,694 Descending Salt Lake Center
Fri 08:41:03 PM 46.1286 -109.1278 312° West 376 433 31,900 -1,403 Descending Salt Lake Center
Fri 08:42:05 PM 46.1972 -109.2361 312° West 381 438 31,000 -435 Descending Salt Lake Center
Fri 08:43:07 PM 46.2764 -109.3619 312° West 380 437 31,000  Level Salt Lake Center
Fri 08:44:09 PM 46.3436 -109.4697 312° West 378 435 31,000  Level Salt Lake Center
Fri 08:45:11 PM 46.4114 -109.5786 311° West 380 437 31,000  Level Salt Lake Center
Fri 08:46:13 PM 46.4883 -109.7081 311° West 380 437 31,000 -387 Level Salt Lake Center
Fri 08:47:15 PM 46.5550 -109.8186 312° West 380 437 30,200 -1,065 Descending Salt Lake Center
Fri 08:48:17 PM 46.6336 -109.9464 312° West 380 437 28,800 -1,790 Descending Salt Lake Center
Fri 08:49:19 PM 46.6992 -110.0536 312° West 375 432 26,500 -2,274 Descending Salt Lake Center
Fri 08:50:21 PM 46.7667 -110.1614 312° West 371 427 24,100 -2,274 Descending Salt Lake Center
Fri 08:51:23 PM 46.8331 -110.2678 311° West 362 417 21,800 -2,468 Descending Salt Lake Center
Fri 08:52:25 PM 46.9092 -110.3939 311° West 350 403 19,000 -2,419 Descending Salt Lake Center
Fri 08:53:27 PM 46.9678 -110.4936 311° West 333 383 16,800 -2,032 Descending Salt Lake Center
Fri 08:54:29 PM 47.0239 -110.5897 311° West 317 365 14,800 -1,355 Descending Salt Lake Center
Fri 08:55:31 PM 47.0839 -110.6894 312° West 319 367 14,000 -1,065 Descending Salt Lake Center
Fri 08:56:33 PM 47.1447 -110.7900 319° Northwest 326 375 12,600 -1,887 Descending Salt Lake Center
Fri 08:57:35 PM 47.2117 -110.8764 322° Northwest 324 373 10,100 -1,306 Descending Salt Lake Center
Fri 08:58:37 PM 47.2972 -110.9747 321° Northwest 324 373 9,900 -634 Descending Salt Lake Center
Fri 08:59:38 PM 47.3536 -111.0419 321° Northwest 284 327 8,800 -1,415 Descending Salt Lake Center
Fri 09:00:40 PM 47.4039 -111.1025 322° Northwest 249 287 7,000 -1,161 Descending Salt Lake Center
Fri 09:01:42 PM 47.4469 -111.1528 328° Northwest 214 246 6,400 -435 Descending Salt Lake Center
Fri 09:02:44 PM 47.4853 -111.1883 340° North 195 224 6,100 -484 Descending Salt Lake Center
Fri 09:03:46 PM 47.5294 -111.2119 285° West 181 208 5,400 -532 Descending Salt Lake Center
Fri 09:04:48 PM 47.5389 -111.2636 241° Southwest 143 165 5,000 -387 Descending Salt Lake Center
Fri 09:05:50 PM 47.5228 -111.3061 223° Southwest 111 128 4,600 -488 Descending Salt Lake Center
Fri 09:06:51 PM 47.4997 -111.3383 226° Southwest 112 129 4,000 -488 Descending Salt Lake Center
Fri 09:07:53 PM 47.4800 -111.3683 226° Southwest 108 124 3,600 -387 Descending Salt Lake Center

Login

Don't have an account? Register now (free) for customized features, flight alerts, and more!